Time;durP1;ratioP1;P1;durP2;ratioP2;P2;SDS_P1;SDS_P2;PMS_P1;PMS_P2;Temp;Humidity;BMP_temperature;BMP_pressure;BME280_temperature;BME280_humidity;BME280_pressure;Samples;Min_cycle;Max_cycle;Signal;HPM_P1;HPM_P2
2022/12/17 13:06:53;;;;;;;94.40;42.63;;;0.10;99.90;;;;;;5058503;28;20048;-82
2022/12/17 13:09:30;;;;;;;90.00;41.90;;;0.10;99.90;;;;;;5055454;28;20044;-82
2022/12/17 13:11:59;;;;;;;97.00;42.57;;;0.10;99.90;;;;;;5055932;28;20044;-82
2022/12/17 13:14:35;;;;;;;87.20;42.33;;;0.20;99.90;;;;;;5039151;28;20472;-85
2022/12/17 13:17:03;;;;;;;88.87;41.13;;;0.20;99.90;;;;;;5055979;28;20105;-84
2022/12/17 13:19:39;;;;;;;89.03;42.57;;;0.10;99.90;;;;;;5038239;28;20041;-83
2022/12/17 13:22:26;;;;;;;90.63;42.63;;;0.10;99.90;;;;;;5055133;28;20127;-84
2022/12/17 13:24:55;;;;;;;86.27;39.77;;;0.10;99.90;;;;;;5037856;28;20066;-84
2022/12/17 13:27:34;;;;;;;91.90;42.17;;;0.10;99.90;;;;;;5037672;28;20048;-85
2022/12/17 13:30:15;;;;;;;88.80;41.57;;;0.10;99.90;;;;;;5037425;28;20037;-83
2022/12/17 13:33:20;;;;;;;93.00;42.90;;;0.20;99.90;;;;;;5052879;28;20051;-84
2022/12/17 13:36:07;;;;;;;92.63;43.13;;;0.20;99.90;;;;;;5052409;28;20044;-83
2022/12/17 13:38:44;;;;;;;91.83;43.13;;;0.20;99.90;;;;;;5052367;28;20037;-83
2022/12/17 13:41:18;;;;;;;88.13;39.80;;;0.20;99.90;;;;;;5036002;28;20039;-84
2022/12/17 13:43:55;;;;;;;90.77;41.67;;;0.20;99.90;;;;;;5053431;28;20121;-84
2022/12/17 13:46:26;;;;;;;88.30;41.87;;;0.20;99.90;;;;;;5053422;28;20048;-85
2022/12/17 13:49:00;;;;;;;86.82;40.05;;;0.20;99.90;;;;;;5037685;28;20053;-84
2022/12/17 13:51:28;;;;;;;84.93;38.13;;;0.10;99.90;;;;;;5037694;28;20036;-83
2022/12/17 13:53:57;;;;;;;82.37;38.83;;;0.10;99.90;;;;;;5072845;28;20052;-83
2022/12/17 13:56:35;;;;;;;82.63;38.93;;;0.10;99.90;;;;;;5038349;28;20036;-83
2022/12/17 13:59:03;;;;;;;83.40;39.30;;;0.00;99.90;;;;;;5038811;28;20582;-82
2022/12/17 14:01:30;;;;;;;85.20;39.90;;;0.00;99.90;;;;;;5072720;28;20040;-82
2022/12/17 14:03:58;;;;;;;82.23;38.40;;;-0.10;99.90;;;;;;5038075;28;20041;-82
2022/12/17 14:06:30;;;;;;;82.53;39.20;;;-0.10;99.90;;;;;;5038297;28;20048;-83
2022/12/17 14:08:57;;;;;;;79.67;38.60;;;-0.10;99.90;;;;;;5038249;28;20389;-84
2022/12/17 14:14:33;;;;;;;81.90;38.43;;;-0.10;99.90;;;;;;5054974;28;20107;-82
2022/12/17 14:16:59;;;;;;;80.93;39.07;;;-0.10;99.90;;;;;;5054928;28;20492;-83
2022/12/17 14:19:26;;;;;;;82.53;38.43;;;-0.10;99.90;;;;;;5038214;28;20392;-83
2022/12/17 14:21:53;;;;;;;83.70;37.33;;;-0.10;99.90;;;;;;5072917;28;20040;-82
2022/12/17 14:24:22;;;;;;;90.90;41.00;;;-0.10;99.90;;;;;;5055371;28;20556;-84
2022/12/17 14:26:53;;;;;;;86.67;40.27;;;-0.20;99.90;;;;;;5054893;28;20040;-82
2022/12/17 14:29:24;;;;;;;89.50;40.78;;;-0.10;99.90;;;;;;5038851;28;20387;-82
2022/12/17 14:31:59;;;;;;;84.73;38.90;;;-0.20;99.90;;;;;;5055036;28;20044;-84
2022/12/17 14:34:25;;;;;;;89.73;39.97;;;-0.20;99.90;;;;;;5055040;28;20615;-82
2022/12/17 14:36:59;;;;;;;93.20;40.37;;;-0.30;99.90;;;;;;5040981;28;20105;-82
2022/12/17 14:39:30;;;;;;;86.00;39.17;;;-0.30;99.90;;;;;;5042115;28;20045;-83
2022/12/17 14:42:24;;;;;;;87.23;38.80;;;-0.30;99.90;;;;;;5058714;28;20044;-84
2022/12/17 14:44:53;;;;;;;88.33;37.93;;;-0.40;99.90;;;;;;5058605;28;20041;-83
2022/12/17 14:47:23;;;;;;;92.33;39.40;;;-0.40;99.90;;;;;;5041736;28;20052;-83
2022/12/17 14:50:00;;;;;;;92.50;39.30;;;-0.40;99.90;;;;;;5058802;28;20119;-83
2022/12/17 14:52:32;;;;;;;100.77;41.80;;;-0.40;99.90;;;;;;5058688;28;20056;-85
2022/12/17 14:54:57;;;;;;;95.05;41.33;;;-0.40;99.90;;;;;;5058394;28;20040;-84
2022/12/17 14:57:23;;;;;;;94.23;40.87;;;-0.50;99.90;;;;;;5058333;28;20044;-85
2022/12/17 14:59:51;;;;;;;94.20;39.03;;;-0.50;99.90;;;;;;5024048;28;20044;-83
2022/12/17 15:02:29;;;;;;;96.53;37.90;;;-0.50;99.90;;;;;;5050017;28;20498;-83
2022/12/17 15:05:00;;;;;;;102.40;41.80;;;-0.60;99.90;;;;;;5015919;28;20096;-83
2022/12/17 15:07:29;;;;;;;96.32;39.45;;;-0.60;99.90;;;;;;5065757;28;20044;-83
2022/12/17 15:09:55;;;;;;;95.20;39.13;;;-0.60;99.90;;;;;;5067161;28;20041;-83
2022/12/17 15:12:23;;;;;;;98.43;42.27;;;-0.70;99.90;;;;;;5049460;28;20118;-83
2022/12/17 15:14:49;;;;;;;100.90;41.10;;;-0.70;99.90;;;;;;5068533;28;20036;-83
2022/12/17 15:17:16;;;;;;;97.90;41.90;;;-0.70;99.90;;;;;;5050677;28;20036;-83
2022/12/17 15:19:42;;;;;;;85.57;37.10;;;-0.70;99.90;;;;;;5032751;28;20492;-83
2022/12/17 15:22:17;;;;;;;86.43;35.80;;;-0.70;99.90;;;;;;5048934;28;20360;-83
2022/12/17 15:24:44;;;;;;;86.27;35.87;;;-0.80;99.90;;;;;;5033036;28;21302;-84
2022/12/17 15:27:15;;;;;;;97.40;39.37;;;-0.80;99.90;;;;;;5031852;28;20044;-83
2022/12/17 15:29:44;;;;;;;92.53;38.20;;;-0.80;99.90;;;;;;5049371;28;20131;-83
2022/12/17 15:32:22;;;;;;;102.40;40.37;;;-0.80;99.90;;;;;;5049095;28;20129;-83
2022/12/17 15:34:49;;;;;;;99.27;40.43;;;-0.80;99.90;;;;;;5046615;28;20072;-84
2022/12/17 15:37:16;;;;;;;99.43;40.10;;;-0.90;99.90;;;;;;5048373;28;20863;-84
2022/12/17 15:39:42;;;;;;;113.13;42.37;;;-0.80;99.90;;;;;;5048958;28;20119;-83
2022/12/17 15:44:53;;;;;;;106.93;40.63;;;-0.90;99.90;;;;;;5065089;28;20044;-83
2022/12/17 15:47:19;;;;;;;106.60;41.93;;;-0.90;99.90;;;;;;5030504;28;20129;-83
2022/12/17 15:49:45;;;;;;;101.03;41.33;;;-0.90;99.90;;;;;;5030594;28;20501;-84
2022/12/17 15:52:13;;;;;;;101.63;40.83;;;-0.90;99.90;;;;;;5049284;28;20072;-83
2022/12/17 15:54:41;;;;;;;101.00;39.47;;;-1.00;99.90;;;;;;5048067;28;20044;-84
2022/12/17 15:57:10;;;;;;;95.87;38.67;;;-1.00;99.90;;;;;;5048176;28;20071;-87
2022/12/17 15:59:35;;;;;;;95.90;37.93;;;-1.00;99.90;;;;;;5048516;28;21171;-84
2022/12/17 16:02:01;;;;;;;99.90;38.27;;;-1.00;99.90;;;;;;5048205;28;20285;-85
2022/12/17 16:04:27;;;;;;;95.93;38.13;;;-1.00;99.90;;;;;;5032582;28;20041;-85
2022/12/17 16:06:53;;;;;;;99.80;38.90;;;-1.10;99.90;;;;;;5032889;28;20036;-85
2022/12/17 16:09:24;;;;;;;91.97;38.03;;;-1.10;99.90;;;;;;5048725;28;20456;-87
2022/12/17 16:11:54;;;;;;;103.00;41.17;;;-1.10;99.90;;;;;;5031985;28;20044;-89
2022/12/17 16:14:21;;;;;;;93.73;37.03;;;-1.10;99.90;;;;;;5032638;28;20036;-88
2022/12/17 16:16:49;;;;;;;101.63;39.10;;;-1.10;99.90;;;;;;5049038;28;20280;-86
2022/12/17 16:19:15;;;;;;;102.53;38.30;;;-1.20;99.90;;;;;;5031494;28;20424;-87
2022/12/17 16:21:41;;;;;;;101.97;39.27;;;-1.10;99.90;;;;;;5030458;28;20116;-85
2022/12/17 16:24:06;;;;;;;101.07;38.17;;;-1.10;99.90;;;;;;5047182;28;20040;-85
2022/12/17 16:26:32;;;;;;;95.90;39.07;;;-1.10;99.90;;;;;;5031024;28;20048;-86
2022/12/17 16:29:00;;;;;;;104.07;38.63;;;-1.10;99.90;;;;;;5031885;28;20059;-86
2022/12/17 16:31:26;;;;;;;102.30;38.50;;;-1.10;99.90;;;;;;5064114;28;20586;-84
2022/12/17 16:33:52;;;;;;;104.97;40.90;;;-1.10;99.90;;;;;;5031138;28;20320;-86
2022/12/17 16:36:19;;;;;;;104.17;39.83;;;-1.10;99.90;;;;;;5030465;28;20052;-85
2022/12/17 16:38:47;;;;;;;94.37;39.03;;;-1.10;99.90;;;;;;5031341;28;20495;-86
2022/12/17 16:41:13;;;;;;;110.23;40.47;;;-1.10;99.90;;;;;;5031646;28;20353;-85
2022/12/17 16:43:40;;;;;;;100.63;41.83;;;-1.10;99.90;;;;;;5032405;28;20189;-86
2022/12/17 16:46:21;;;;;;;104.80;40.97;;;-1.10;99.90;;;;;;5032186;28;20145;-85
2022/12/17 16:48:47;;;;;;;111.22;42.97;;;-1.10;99.90;;;;;;5030649;28;20055;-85
2022/12/17 16:51:18;;;;;;;107.70;39.73;;;-1.10;99.90;;;;;;5031339;28;20036;-83
2022/12/17 16:53:44;;;;;;;101.33;38.93;;;-1.10;99.90;;;;;;5032275;28;20492;-85
2022/12/17 16:56:21;;;;;;;106.03;42.10;;;-1.20;99.90;;;;;;5029952;28;20484;-84
2022/12/17 16:58:51;;;;;;;104.57;39.93;;;-1.10;99.90;;;;;;5030920;28;20036;-83
2022/12/17 17:01:25;;;;;;;102.03;39.43;;;-1.10;99.90;;;;;;5053673;28;20082;-85
2022/12/17 17:03:51;;;;;;;90.80;38.33;;;-1.10;99.90;;;;;;5031447;28;20025;-84
2022/12/17 17:06:18;;;;;;;101.43;38.90;;;-1.20;99.90;;;;;;5031149;28;20293;-84
2022/12/17 17:08:44;;;;;;;91.87;36.97;;;-1.20;99.90;;;;;;5036536;28;20361;-84
2022/12/17 17:11:22;;;;;;;98.00;37.80;;;-1.20;99.90;;;;;;5039119;28;20044;-84
2022/12/17 17:13:49;;;;;;;99.67;39.67;;;-1.20;99.90;;;;;;5028959;28;20045;-85
2022/12/17 17:16:16;;;;;;;101.43;38.77;;;-1.20;99.90;;;;;;5035945;28;20045;-84
2022/12/17 17:18:42;;;;;;;101.63;40.00;;;-1.10;99.90;;;;;;5026543;28;20300;-84
2022/12/17 17:21:29;;;;;;;103.90;40.60;;;-1.20;99.90;;;;;;5053853;28;20044;-84
2022/12/17 17:24:00;;;;;;;109.93;43.33;;;-1.20;99.90;;;;;;5029319;28;20377;-84
2022/12/17 17:26:28;;;;;;;107.53;42.60;;;-1.10;99.90;;;;;;5034240;28;20062;-86
2022/12/17 17:28:54;;;;;;;101.73;41.43;;;-1.20;99.90;;;;;;5026607;28;20048;-85
2022/12/17 17:31:22;;;;;;;102.53;41.73;;;-1.10;99.90;;;;;;5031937;28;20041;-85
2022/12/17 17:33:49;;;;;;;108.57;43.53;;;-1.10;99.90;;;;;;5025181;28;20122;-87
2022/12/17 17:36:24;;;;;;;108.83;44.73;;;-1.20;99.90;;;;;;5032573;28;20072;-85
2022/12/17 17:38:52;;;;;;;102.07;42.40;;;-1.20;99.90;;;;;;5029425;28;20037;-82
2022/12/17 17:41:20;;;;;;;108.73;45.00;;;-1.20;99.90;;;;;;5030168;28;20051;-84
2022/12/17 17:43:48;;;;;;;101.60;42.57;;;-1.20;99.90;;;;;;5030094;28;20071;-85
2022/12/17 17:46:16;;;;;;;98.63;40.73;;;-1.20;99.90;;;;;;5047132;28;20056;-84
2022/12/17 17:48:44;;;;;;;97.27;41.77;;;-1.30;99.90;;;;;;5032476;28;20106;-84
2022/12/17 17:51:18;;;;;;;96.97;42.33;;;-1.30;99.90;;;;;;5030818;28;20850;-83
2022/12/17 17:53:49;;;;;;;94.00;42.47;;;-1.40;99.90;;;;;;5033421;28;20823;-83
2022/12/17 17:56:41;;;;;;;100.67;43.97;;;-1.40;99.90;;;;;;5050217;28;20279;-84
2022/12/17 17:59:10;;;;;;;102.45;44.42;;;-1.40;99.90;;;;;;5043693;28;20386;-83
2022/12/17 18:01:38;;;;;;;108.93;46.27;;;-1.50;99.90;;;;;;5045097;28;20037;-84
2022/12/17 18:04:06;;;;;;;100.90;46.00;;;-1.50;99.90;;;;;;5055271;28;20279;-84
2022/12/17 18:06:35;;;;;;;108.47;47.40;;;-1.40;99.90;;;;;;5045026;28;20120;-83
2022/12/17 18:09:01;;;;;;;102.53;46.13;;;-1.50;99.90;;;;;;5034846;28;20295;-83
2022/12/17 18:11:29;;;;;;;101.40;45.83;;;-1.50;99.90;;;;;;5032564;28;20800;-83
2022/12/17 18:13:56;;;;;;;102.87;46.07;;;-1.50;99.90;;;;;;5035865;28;20051;-83
2022/12/17 18:16:43;;;;;;;100.23;44.80;;;-1.50;99.90;;;;;;5048889;28;20290;-84
2022/12/17 18:19:17;;;;;;;106.97;46.77;;;-1.50;99.90;;;;;;5031847;28;20302;-84
2022/12/17 18:21:43;;;;;;;108.33;46.93;;;-1.60;99.90;;;;;;5038266;28;20334;-84
2022/12/17 18:24:22;;;;;;;107.90;48.90;;;-1.60;99.90;;;;;;5021287;28;20646;-83
2022/12/17 18:26:50;;;;;;;107.63;47.47;;;-1.60;99.90;;;;;;5026576;28;20317;-86
2022/12/17 18:29:21;;;;;;;109.40;48.03;;;-1.60;99.90;;;;;;5054838;28;20283;-83
2022/12/17 18:31:48;;;;;;;105.85;46.83;;;-1.60;99.90;;;;;;5028563;28;20124;-82
2022/12/17 18:34:17;;;;;;;104.83;47.37;;;-1.60;99.90;;;;;;5026632;28;20072;-85
2022/12/17 18:36:45;;;;;;;102.17;46.83;;;-1.60;99.90;;;;;;5024266;28;20726;-85
2022/12/17 18:39:15;;;;;;;104.53;48.87;;;-1.60;99.90;;;;;;5014486;28;20719;-84
2022/12/17 18:44:26;;;;;;;109.63;50.57;;;-1.60;99.90;;;;;;5040683;28;20275;-85
2022/12/17 18:46:52;;;;;;;112.03;49.40;;;-1.60;99.90;;;;;;5042000;28;20826;-84
2022/12/17 18:49:19;;;;;;;115.63;52.00;;;-1.60;99.90;;;;;;5053083;28;20315;-84
2022/12/17 18:51:47;;;;;;;112.90;50.17;;;-1.60;99.90;;;;;;5037937;28;20067;-85
2022/12/17 18:54:22;;;;;;;113.80;54.30;;;-1.60;99.90;;;;;;5032842;28;20375;-85
2022/12/17 18:56:49;;;;;;;117.40;52.73;;;-1.50;99.90;;;;;;5028045;28;20294;-84
2022/12/17 18:59:19;;;;;;;116.27;54.33;;;-1.60;99.90;;;;;;5022110;28;20303;-84
2022/12/17 19:01:45;;;;;;;120.83;53.83;;;-1.50;99.90;;;;;;5051220;28;20816;-84
2022/12/17 19:04:16;;;;;;;118.00;54.60;;;-1.50;99.90;;;;;;5029182;28;20404;-84
2022/12/17 19:06:43;;;;;;;123.63;54.50;;;-1.50;99.90;;;;;;5019262;28;20291;-84
2022/12/17 19:09:18;;;;;;;119.30;54.60;;;-1.50;99.90;;;;;;5037398;28;20293;-84
2022/12/17 19:11:45;;;;;;;121.83;56.20;;;-1.50;99.90;;;;;;5037628;28;20374;-84
2022/12/17 19:14:15;;;;;;;119.13;54.17;;;-1.50;99.90;;;;;;5030966;28;20280;-84
2022/12/17 19:16:41;;;;;;;125.43;54.67;;;-1.50;99.90;;;;;;5031375;28;20287;-85
2022/12/17 19:19:11;;;;;;;129.47;56.10;;;-1.50;99.90;;;;;;5011423;28;20636;-84
2022/12/17 19:21:37;;;;;;;129.93;54.97;;;-1.50;99.90;;;;;;5046228;28;20133;-84
2022/12/17 19:24:06;;;;;;;126.40;56.27;;;-1.50;99.90;;;;;;5040932;28;20275;-84
2022/12/17 19:26:32;;;;;;;128.83;57.77;;;-1.50;99.90;;;;;;5032916;28;20345;-82
2022/12/17 19:29:00;;;;;;;122.53;53.73;;;-1.50;99.90;;;;;;5037644;28;20306;-84
2022/12/17 19:31:29;;;;;;;124.67;54.67;;;-1.50;99.90;;;;;;5024196;28;20045;-84
2022/12/17 19:34:00;;;;;;;127.53;57.23;;;-1.50;99.90;;;;;;5067916;28;20051;-83
2022/12/17 19:36:29;;;;;;;129.10;55.27;;;-1.60;99.90;;;;;;5057212;28;20291;-83
2022/12/17 19:38:57;;;;;;;117.57;53.60;;;-1.60;99.90;;;;;;5050725;28;20309;-82
2022/12/17 19:41:24;;;;;;;115.07;50.47;;;-1.70;99.90;;;;;;5032433;28;20324;-83
2022/12/17 19:44:10;;;;;;;116.17;52.43;;;-1.70;99.90;;;;;;5030994;28;20360;-83
2022/12/17 19:46:35;;;;;;;116.87;52.23;;;-1.70;99.90;;;;;;5048105;28;20291;-82
2022/12/17 19:49:02;;;;;;;121.13;52.93;;;-1.70;99.90;;;;;;5065892;28;20353;-82
2022/12/17 19:51:30;;;;;;;117.13;53.10;;;-1.70;99.90;;;;;;5031660;28;20060;-82
2022/12/17 19:53:56;;;;;;;118.60;51.87;;;-1.70;99.90;;;;;;5048098;28;20282;-83
2022/12/17 19:56:26;;;;;;;120.73;53.77;;;-1.70;99.90;;;;;;5030743;28;20729;-83
2022/12/17 19:58:57;;;;;;;125.97;55.77;;;-1.70;99.90;;;;;;5048003;28;20317;-83
2022/12/17 20:01:33;;;;;;;116.10;51.70;;;-1.70;99.90;;;;;;5047807;28;20339;-82
2022/12/17 20:04:00;;;;;;;114.77;51.47;;;-1.70;99.90;;;;;;5032270;28;20275;-83
2022/12/17 20:06:29;;;;;;;115.63;50.30;;;-1.80;99.90;;;;;;5064574;28;20370;-83
2022/12/17 20:08:54;;;;;;;108.17;49.00;;;-1.80;99.90;;;;;;5028953;28;21014;-83
2022/12/17 20:11:32;;;;;;;113.13;50.10;;;-1.80;99.90;;;;;;5031206;28;20289;-83
2022/12/17 20:14:15;;;;;;;113.60;50.67;;;-1.80;99.90;;;;;;5064590;28;20508;-84
2022/12/17 20:16:50;;;;;;;119.07;51.93;;;-1.80;99.90;;;;;;5047449;28;20279;-83
2022/12/17 20:19:18;;;;;;;114.70;51.20;;;-1.80;99.90;;;;;;5030913;28;20291;-83
2022/12/17 20:21:44;;;;;;;116.77;50.13;;;-1.90;99.90;;;;;;5047715;28;20325;-84
2022/12/17 20:24:11;;;;;;;115.37;50.17;;;-1.80;99.90;;;;;;5048934;28;20279;-85
2022/12/17 20:26:37;;;;;;;129.80;55.03;;;-1.80;99.90;;;;;;5031157;28;20797;-83
2022/12/17 20:29:04;;;;;;;125.77;53.27;;;-1.80;99.90;;;;;;5031224;28;20271;-82
2022/12/17 20:31:30;;;;;;;130.30;53.67;;;-1.80;99.90;;;;;;5047710;28;20121;-83
2022/12/17 20:33:59;;;;;;;119.20;51.70;;;-1.90;99.90;;;;;;5046878;28;20331;-84
2022/12/17 20:36:25;;;;;;;118.20;50.37;;;-1.90;99.90;;;;;;5031159;28;20370;-83
2022/12/17 20:38:51;;;;;;;116.77;50.90;;;-1.90;99.90;;;;;;5046490;28;20389;-83
2022/12/17 20:41:20;;;;;;;132.00;54.97;;;-1.90;99.90;;;;;;5031335;28;20033;-83
2022/12/17 20:43:46;;;;;;;120.30;50.67;;;-1.90;99.90;;;;;;5030781;28;20035;-83
2022/12/17 20:46:13;;;;;;;122.47;50.67;;;-1.90;99.90;;;;;;5029687;28;21202;-84
2022/12/17 20:48:40;;;;;;;125.27;51.60;;;-1.90;99.90;;;;;;5030705;28;20285;-85
2022/12/17 20:51:16;;;;;;;128.80;55.47;;;-1.90;99.90;;;;;;5047689;28;20369;-83
2022/12/17 20:53:42;;;;;;;126.27;53.17;;;-1.90;99.90;;;;;;5030918;28;20357;-85
2022/12/17 20:56:14;;;;;;;130.63;54.27;;;-1.90;99.90;;;;;;5047304;28;20341;-84
2022/12/17 20:58:40;;;;;;;;;;;-2.00;99.90;;;;;;5047717;28;20683;-84
2022/12/17 21:01:09;;;;;;;127.03;52.17;;;-2.00;99.90;;;;;;5029910;28;19928;-83
2022/12/17 21:03:35;;;;;;;130.50;53.37;;;-2.00;99.90;;;;;;5029982;28;20278;-84
2022/12/17 21:06:16;;;;;;;130.93;54.33;;;-2.10;99.90;;;;;;5030464;28;20778;-84
2022/12/17 21:08:47;;;;;;;129.00;53.20;;;-2.00;99.90;;;;;;5030558;28;20369;-84
2022/12/17 21:11:13;;;;;;;131.60;53.83;;;-2.10;99.90;;;;;;5047700;28;20695;-84
2022/12/17 21:13:39;;;;;;;125.23;52.97;;;-2.10;99.90;;;;;;5046738;28;20286;-83
2022/12/17 21:16:14;;;;;;;132.57;55.40;;;-2.10;99.90;;;;;;5030785;28;20308;-84
2022/12/17 21:18:40;;;;;;;139.07;56.40;;;-2.10;99.90;;;;;;5064131;28;20049;-83
2022/12/17 21:21:09;;;;;;;135.40;55.13;;;-2.00;99.90;;;;;;5062683;28;20282;-84
2022/12/17 21:23:37;;;;;;;145.53;58.67;;;-2.00;99.90;;;;;;5030373;28;20040;-83
2022/12/17 21:26:09;;;;;;;139.80;56.57;;;-2.00;99.90;;;;;;5030192;28;20279;-84
2022/12/17 21:28:37;;;;;;;142.67;56.07;;;-2.00;99.90;;;;;;5031149;28;20310;-83
2022/12/17 21:31:03;;;;;;;131.83;53.67;;;-2.00;99.90;;;;;;5029858;28;20287;-85
2022/12/17 21:33:30;;;;;;;127.97;53.57;;;-2.00;99.90;;;;;;5047052;28;20287;-84
2022/12/17 21:36:04;;;;;;;138.77;55.23;;;-2.10;99.90;;;;;;5046658;28;20340;-83
2022/12/17 21:38:31;;;;;;;127.67;52.87;;;-2.10;99.90;;;;;;5045004;28;20295;-83
2022/12/17 21:41:09;;;;;;;115.83;47.93;;;-2.10;99.90;;;;;;5030496;28;20307;-84
2022/12/17 21:43:35;;;;;;;124.67;50.50;;;-2.10;99.90;;;;;;5046555;28;20330;-84
2022/12/17 21:46:02;;;;;;;119.13;48.53;;;-2.20;99.90;;;;;;5029829;28;20291;-84
2022/12/17 21:48:28;;;;;;;121.57;49.43;;;-2.20;99.90;;;;;;5025025;28;20298;-84
2022/12/17 21:50:54;;;;;;;114.83;49.00;;;-2.20;99.90;;;;;;5035301;28;20368;-85
2022/12/17 21:53:21;;;;;;;115.33;48.40;;;-2.20;99.90;;;;;;5042866;28;20272;-84
2022/12/17 21:55:48;;;;;;;112.37;47.30;;;-2.30;99.90;;;;;;5026579;28;20350;-84
2022/12/17 21:58:14;;;;;;;119.90;50.43;;;-2.30;99.90;;;;;;5048858;28;20307;-85
2022/12/17 22:00:40;;;;;;;123.77;50.27;;;-2.30;99.90;;;;;;5051124;28;20345;-83
2022/12/17 22:03:06;;;;;;;129.67;49.67;;;-2.30;99.90;;;;;;5051993;28;20326;-83
2022/12/17 22:05:35;;;;;;;129.73;52.33;;;-2.30;99.90;;;;;;5035283;28;20688;-83
2022/12/17 22:08:01;;;;;;;125.70;49.87;;;-2.30;99.90;;;;;;5052151;28;20049;-82
2022/12/17 22:10:27;;;;;;;118.67;49.33;;;-2.40;99.90;;;;;;5030594;28;20303;-83
2022/12/17 22:15:38;;;;;;;123.27;45.57;;;-2.40;99.90;;;;;;5039313;28;20051;-83
2022/12/17 22:18:04;;;;;;;120.43;48.60;;;-2.40;99.90;;;;;;5035065;28;20311;-83
2022/12/17 22:20:31;;;;;;;114.60;47.03;;;-2.40;99.90;;;;;;5006108;28;20296;-83
2022/12/17 22:22:56;;;;;;;125.30;49.07;;;-2.40;99.90;;;;;;5038918;28;20647;-84
2022/12/17 22:25:22;;;;;;;127.30;50.40;;;-2.50;99.90;;;;;;5019870;28;20279;-83
2022/12/17 22:27:48;;;;;;;121.40;49.90;;;-2.50;99.90;;;;;;5032177;28;20040;-83
2022/12/17 22:33:01;;;;;;;121.60;48.60;;;-2.50;99.90;;;;;;5051483;28;20041;-84
2022/12/17 22:35:33;;;;;;;117.77;47.00;;;-2.40;99.90;;;;;;5052480;28;20275;-83
2022/12/17 22:37:59;;;;;;;109.53;43.97;;;-2.40;99.90;;;;;;5035807;28;20311;-83
2022/12/17 22:40:25;;;;;;;114.47;44.17;;;-2.50;99.90;;;;;;5031384;28;20041;-83
2022/12/17 22:45:40;;;;;;;107.73;43.73;;;-2.50;99.90;;;;;;5042528;28;20121;-84
2022/12/17 22:48:07;;;;;;;117.03;47.17;;;-2.50;99.90;;;;;;5018630;28;20297;-84
2022/12/17 22:50:33;;;;;;;119.37;46.87;;;-2.50;99.90;;;;;;5032167;28;20283;-84
2022/12/17 22:52:59;;;;;;;127.40;48.03;;;-2.50;99.90;;;;;;5031774;28;20370;-84
2022/12/17 22:55:25;;;;;;;125.57;47.03;;;-2.50;99.90;;;;;;5034321;28;20422;-84
2022/12/17 22:57:50;;;;;;;103.77;43.03;;;-2.50;99.90;;;;;;5017679;28;20523;-84
2022/12/17 23:00:21;;;;;;;103.37;42.07;;;-2.50;99.90;;;;;;5030236;28;20307;-83
2022/12/17 23:02:49;;;;;;;99.70;39.87;;;-2.60;99.90;;;;;;5032338;28;20041;-83
2022/12/17 23:05:15;;;;;;;99.10;40.60;;;-2.60;99.90;;;;;;5003726;28;20276;-84
2022/12/17 23:07:41;;;;;;;97.23;40.93;;;-2.60;99.90;;;;;;5011705;28;20292;-84
2022/12/17 23:10:07;;;;;;;89.70;36.93;;;-2.60;99.90;;;;;;5020916;28;20041;-84
2022/12/17 23:12:51;;;;;;;102.07;40.70;;;-2.70;99.90;;;;;;5055120;28;20045;-84
2022/12/17 23:15:19;;;;;;;101.70;40.97;;;-2.70;99.90;;;;;;4995208;28;20307;-84
2022/12/17 23:17:44;;;;;;;105.27;41.43;;;-2.80;99.90;;;;;;5011637;28;20283;-83
2022/12/17 23:20:11;;;;;;;113.63;47.93;;;-2.80;99.90;;;;;;5001121;28;20289;-83
2022/12/17 23:22:37;;;;;;;102.93;41.40;;;-2.80;99.90;;;;;;4998926;28;20124;-83
2022/12/17 23:25:03;;;;;;;109.27;43.07;;;-2.80;99.90;;;;;;5014770;28;20371;-83
2022/12/17 23:27:29;;;;;;;110.33;43.27;;;-2.80;99.90;;;;;;4998583;28;20536;-83
2022/12/17 23:29:54;;;;;;;103.17;42.93;;;-2.90;99.90;;;;;;4998401;28;20285;-83
2022/12/17 23:32:20;;;;;;;106.00;42.00;;;-2.90;99.90;;;;;;5035536;28;20048;-83
2022/12/17 23:34:46;;;;;;;108.00;42.87;;;-2.90;99.90;;;;;;5053883;28;20523;-83
2022/12/17 23:37:12;;;;;;;105.43;42.83;;;-2.90;99.90;;;;;;5027763;28;20124;-83
2022/12/17 23:39:37;;;;;;;109.43;43.70;;;-2.90;99.90;;;;;;5021176;28;20060;-83
2022/12/17 23:42:03;;;;;;;100.93;43.60;;;-3.00;99.90;;;;;;5021912;28;20370;-84
2022/12/17 23:44:29;;;;;;;113.20;44.63;;;-3.00;99.90;;;;;;5054254;28;20048;-83
2022/12/17 23:46:54;;;;;;;102.33;41.97;;;-3.00;99.90;;;;;;5031913;28;20135;-83
2022/12/17 23:49:20;;;;;;;108.60;42.33;;;-3.00;99.90;;;;;;5001304;28;20046;-83
2022/12/17 23:51:46;;;;;;;108.13;44.90;;;-3.00;99.90;;;;;;4981848;28;20574;-83
2022/12/17 23:54:11;;;;;;;109.83;43.40;;;-3.00;99.90;;;;;;4997855;28;20147;-83
2022/12/17 23:56:37;;;;;;;119.17;47.07;;;-3.00;99.90;;;;;;5004485;28;20127;-83
2022/12/17 23:59:03;;;;;;;116.13;46.03;;;-3.00;99.90;;;;;;5013765;28;20064;-83
